createdAt,value
2023-02-11T00:02:17.837Z,34.00
2023-02-11T00:04:44.974Z,38.42
2023-02-11T00:07:18.405Z,49.13
2023-02-11T00:09:45.579Z,42.22
2023-02-11T00:12:19.578Z,44.42
2023-02-11T00:14:46.847Z,37.88
2023-02-11T00:17:33.413Z,39.50
2023-02-11T00:20:08.288Z,46.47
2023-02-11T00:22:42.608Z,43.05
2023-02-11T00:25:09.881Z,31.65
2023-02-11T00:27:37.729Z,30.30
2023-02-11T00:30:12.390Z,42.65
2023-02-11T00:32:39.561Z,40.20
2023-02-11T00:35:13.527Z,34.63
2023-02-11T00:37:40.707Z,44.78
2023-02-11T00:40:08.023Z,36.50
2023-02-11T00:42:44.502Z,34.70
2023-02-11T00:45:11.617Z,35.63
2023-02-11T00:47:45.652Z,29.15
2023-02-11T00:50:12.759Z,37.83
2023-02-11T00:52:39.974Z,36.40
2023-02-11T00:55:14.429Z,32.03
2023-02-11T00:57:41.735Z,31.33
2023-02-11T01:00:16.643Z,15.65
2023-02-11T01:02:43.838Z,36.30
2023-02-11T01:05:10.998Z,42.95
2023-02-11T01:07:44.505Z,22.90
2023-02-11T01:10:11.666Z,41.15
2023-02-11T01:12:45.621Z,37.22
2023-02-11T01:15:14.357Z,36.33
2023-02-11T01:17:54.432Z,31.15
2023-02-11T01:20:30.350Z,36.80
2023-02-11T01:23:04.577Z,36.80
2023-02-11T01:25:32.020Z,35.85
2023-02-11T01:27:59.339Z,41.88
2023-02-11T01:30:33.461Z,47.05
2023-02-11T01:33:00.637Z,42.67
2023-02-11T01:35:34.411Z,36.42
2023-02-11T01:38:01.672Z,29.85
2023-02-11T01:40:35.468Z,34.05
2023-02-11T01:43:02.728Z,40.47
2023-02-11T01:45:52.842Z,38.47
2023-02-11T01:48:28.640Z,34.33
2023-02-11T01:51:05.587Z,32.20
2023-02-11T01:53:51.698Z,39.95
2023-02-11T01:56:45.689Z,38.58
2023-02-11T01:59:15.795Z,27.58
2023-02-11T02:01:44.465Z,38.55
2023-02-11T02:04:18.441Z,31.63
2023-02-11T02:06:49.782Z,35.25
2023-02-11T02:09:27.459Z,34.60
2023-02-11T02:11:54.820Z,25.13
2023-02-11T02:14:28.567Z,33.20
2023-02-11T02:17:02.424Z,36.97
2023-02-11T02:20:00.637Z,26.42
2023-02-11T02:22:58.517Z,35.80
2023-02-11T02:25:55.545Z,32.97
2023-02-11T02:28:25.966Z,40.88
2023-02-11T02:31:35.514Z,35.83
2023-02-11T02:34:14.375Z,23.20
2023-02-11T02:36:54.558Z,23.85
2023-02-11T02:39:24.818Z,39.97
2023-02-11T02:41:52.846Z,32.75
2023-02-11T02:44:27.443Z,33.78
2023-02-11T02:46:54.657Z,43.10
2023-02-11T02:49:28.491Z,42.05
2023-02-11T02:51:55.674Z,48.13
2023-02-11T02:54:32.466Z,37.58
2023-02-11T02:57:07.486Z,43.13
2023-02-11T02:59:59.436Z,36.00
2023-02-11T03:02:47.826Z,39.22
2023-02-11T03:05:25.636Z,33.05
2023-02-11T03:07:58.871Z,32.75
2023-02-11T03:10:38.576Z,40.90
2023-02-11T03:13:06.438Z,47.45
2023-02-11T03:15:35.894Z,35.20
2023-02-11T03:18:10.654Z,34.50
2023-02-11T03:20:39.849Z,32.30
2023-02-11T03:23:17.710Z,29.33
2023-02-11T03:25:49.368Z,23.10
2023-02-11T03:28:26.581Z,28.88
2023-02-11T03:31:32.591Z,33.97
2023-02-11T03:34:11.085Z,44.03
2023-02-11T03:36:53.551Z,43.70
2023-02-11T03:39:23.263Z,45.95
2023-02-11T03:41:50.701Z,49.15
2023-02-11T03:44:24.470Z,49.25
2023-02-11T03:46:53.065Z,38.97
2023-02-11T03:49:28.631Z,38.35
2023-02-11T03:51:56.624Z,47.63
2023-02-11T03:54:35.553Z,57.60
2023-02-11T03:57:02.975Z,44.20
2023-02-11T03:59:30.345Z,42.53
2023-02-11T04:02:06.548Z,43.10
2023-02-11T04:04:33.748Z,56.92
2023-02-11T04:07:07.617Z,46.40
2023-02-11T04:09:36.208Z,48.53
2023-02-11T04:12:03.561Z,43.05
2023-02-11T04:14:37.464Z,54.25
2023-02-11T04:17:11.449Z,52.88
2023-02-11T04:19:51.570Z,54.97
2023-02-11T04:22:18.774Z,57.83
2023-02-11T04:24:45.880Z,54.53
2023-02-11T04:27:19.468Z,48.90
2023-02-11T04:29:46.747Z,59.72
2023-02-11T04:32:20.717Z,52.33
2023-02-11T04:34:48.373Z,57.05
2023-02-11T04:37:15.544Z,42.83
2023-02-11T04:39:49.512Z,51.30
2023-02-11T04:42:16.691Z,40.30
2023-02-11T04:44:50.633Z,56.70
2023-02-11T04:47:17.855Z,56.80
2023-02-11T04:49:45.018Z,42.05
2023-02-11T04:52:18.494Z,48.00
2023-02-11T04:54:45.667Z,45.63
2023-02-11T04:57:19.691Z,41.08
2023-02-11T04:59:46.949Z,46.17
2023-02-11T05:02:14.226Z,44.00
2023-02-11T05:04:47.599Z,50.50
2023-02-11T05:07:14.805Z,43.60
2023-02-11T05:09:48.535Z,46.65
2023-02-11T05:12:15.783Z,53.03
2023-02-11T05:14:42.921Z,39.28
2023-02-11T05:17:16.517Z,39.95
2023-02-11T05:19:50.543Z,33.05
2023-02-11T05:22:24.604Z,36.53
2023-02-11T05:24:51.789Z,44.17
2023-02-11T05:27:18.902Z,39.78
2023-02-11T05:29:52.509Z,39.10
2023-02-11T05:32:19.939Z,39.83
2023-02-11T05:34:53.565Z,35.83
2023-02-11T05:37:20.796Z,36.85
2023-02-11T05:39:54.517Z,41.13
2023-02-11T05:42:28.851Z,47.97
2023-02-11T05:44:55.999Z,36.55
2023-02-11T05:47:23.240Z,34.05
2023-02-11T05:49:57.544Z,25.30
2023-02-11T05:52:24.871Z,34.10
2023-02-11T05:54:58.521Z,34.53
2023-02-11T05:57:25.714Z,34.80
2023-02-11T05:59:52.843Z,29.23
2023-02-11T06:02:26.527Z,36.28
2023-02-11T06:04:53.755Z,39.00
2023-02-11T06:07:27.539Z,26.23
2023-02-11T06:09:54.724Z,35.15
2023-02-11T06:12:21.828Z,29.33
2023-02-11T06:14:55.480Z,38.80
2023-02-11T06:17:36.587Z,33.40
2023-02-11T06:20:11.552Z,19.00
2023-02-11T06:22:38.774Z,29.48
2023-02-11T06:25:06.121Z,22.80
2023-02-11T06:27:39.517Z,26.02
2023-02-11T06:30:07.186Z,22.08
2023-02-11T06:32:44.836Z,23.85
2023-02-11T06:35:13.042Z,22.80
2023-02-11T06:40:13.805Z,21.02
2023-02-11T06:42:40.949Z,19.30
2023-02-11T06:45:19.565Z,21.38
2023-02-11T06:47:46.696Z,19.67
2023-02-11T06:50:21.624Z,22.02
2023-02-11T06:52:48.781Z,20.08
2023-02-11T06:55:15.898Z,24.25
2023-02-11T06:57:49.526Z,20.10
2023-02-11T07:00:16.931Z,22.92
2023-02-11T07:02:50.884Z,28.25
2023-02-11T07:05:18.066Z,14.70
2023-02-11T07:07:45.158Z,18.30
2023-02-11T07:10:18.528Z,18.20
2023-02-11T07:12:45.713Z,20.33
2023-02-11T07:15:19.612Z,25.40
2023-02-11T07:18:06.454Z,21.58
2023-02-11T07:20:40.686Z,30.80
2023-02-11T07:23:07.858Z,28.58
2023-02-11T07:25:35.874Z,20.58
2023-02-11T07:28:10.630Z,18.90
2023-02-11T07:30:37.835Z,17.83
2023-02-11T07:33:11.714Z,15.68
2023-02-11T07:35:51.785Z,20.27
2023-02-11T07:38:25.656Z,16.13
2023-02-11T07:40:52.846Z,12.43
2023-02-11T07:43:19.941Z,18.48
2023-02-11T07:45:53.607Z,10.70
2023-02-11T07:48:20.836Z,21.13
2023-02-11T07:50:55.027Z,15.25
2023-02-11T07:53:22.256Z,16.33
2023-02-11T07:55:49.754Z,18.40
2023-02-11T07:58:23.510Z,20.92
2023-02-11T08:00:50.756Z,16.58
2023-02-11T08:03:24.565Z,10.55
2023-02-11T08:05:51.986Z,18.85
2023-02-11T08:10:52.694Z,18.63
2023-02-11T08:13:20.012Z,19.17
2023-02-11T08:15:53.520Z,10.88
2023-02-11T08:18:27.476Z,20.50
2023-02-11T08:21:01.562Z,18.00
2023-02-11T08:23:28.845Z,14.10
2023-02-11T08:26:02.689Z,16.17
2023-02-11T08:28:30.104Z,15.45
2023-02-11T08:30:57.262Z,18.13
2023-02-11T08:33:30.530Z,12.73
2023-02-11T08:35:57.720Z,15.52
2023-02-11T08:38:31.584Z,15.20
2023-02-11T08:41:00.292Z,13.60
2023-02-11T08:43:33.687Z,18.52
2023-02-11T08:46:02.334Z,15.73
2023-02-11T08:48:30.164Z,18.58
2023-02-11T08:51:04.549Z,17.48
2023-02-11T08:53:31.748Z,6.82
2023-02-11T08:56:05.794Z,9.07
2023-02-11T08:58:33.187Z,18.05
2023-02-11T09:01:00.461Z,12.35
2023-02-11T09:03:34.535Z,12.20
2023-02-11T09:06:05.195Z,14.15
2023-02-11T09:08:38.565Z,20.08
2023-02-11T09:11:05.723Z,8.48
2023-02-11T09:13:33.450Z,9.10
2023-02-11T09:16:07.676Z,11.07
2023-02-11T09:18:41.537Z,13.45
2023-02-11T09:21:16.713Z,15.57
2023-02-11T09:23:44.797Z,17.98
2023-02-11T09:26:14.554Z,11.13
2023-02-11T09:28:48.541Z,9.93
2023-02-11T09:31:16.983Z,10.60
2023-02-11T09:33:54.669Z,13.75
2023-02-11T09:36:23.315Z,10.60
2023-02-11T09:38:50.820Z,15.82
2023-02-11T09:43:53.806Z,14.20
2023-02-11T09:46:28.644Z,9.98
2023-02-11T09:48:56.942Z,14.02
2023-02-11T09:51:49.629Z,16.83
2023-02-11T09:54:27.441Z,13.63
2023-02-11T09:57:01.642Z,14.25
2023-02-11T09:59:29.116Z,10.30
2023-02-11T10:02:02.597Z,12.73
2023-02-11T10:04:45.282Z,9.70
2023-02-11T10:07:24.699Z,13.98
2023-02-11T10:10:21.338Z,9.23
2023-02-11T10:13:11.578Z,9.80
2023-02-11T10:15:52.738Z,8.05
2023-02-11T10:21:33.869Z,5.00
2023-02-11T10:24:02.378Z,8.40
2023-02-11T10:26:37.792Z,6.00
2023-02-11T10:29:12.152Z,10.90
2023-02-11T10:31:49.642Z,6.47
2023-02-11T10:34:16.898Z,9.52
2023-02-11T10:36:51.747Z,6.65
2023-02-11T10:39:20.410Z,8.70
2023-02-11T10:41:49.970Z,4.85
2023-02-11T10:44:37.905Z,3.75
2023-02-11T10:47:09.908Z,3.03
2023-02-11T10:49:48.578Z,5.55
2023-02-11T10:52:20.717Z,5.03
2023-02-11T10:55:06.657Z,3.53
2023-02-11T10:57:35.820Z,3.60
2023-02-11T11:00:28.633Z,3.60
2023-02-11T11:02:57.533Z,2.28
2023-02-11T11:05:35.853Z,3.83
2023-02-11T11:08:05.095Z,4.72
2023-02-11T11:10:43.695Z,2.67
2023-02-11T11:13:31.209Z,3.38
2023-02-11T11:16:16.640Z,3.88
2023-02-11T11:18:54.633Z,5.78
2023-02-11T11:21:43.599Z,3.30
2023-02-11T11:24:18.843Z,5.50
2023-02-11T11:26:54.574Z,3.53
2023-02-11T11:29:34.584Z,6.05
2023-02-11T11:32:13.717Z,4.93
2023-02-11T11:34:41.950Z,2.08
2023-02-11T11:37:26.654Z,1.88
2023-02-11T11:40:22.546Z,3.50
2023-02-11T11:43:10.598Z,2.53
2023-02-11T11:45:37.759Z,4.90
2023-02-11T11:48:11.592Z,2.10
2023-02-11T11:50:48.048Z,3.67
2023-02-11T11:53:40.679Z,4.82
2023-02-11T11:56:12.163Z,1.98
2023-02-11T11:58:45.645Z,1.83
2023-02-11T12:01:34.590Z,2.53
2023-02-11T12:04:37.756Z,2.80
2023-02-11T12:07:14.146Z,3.80
2023-02-11T12:10:00.580Z,2.65
2023-02-11T12:12:46.788Z,2.05
2023-02-11T12:15:30.597Z,3.30
2023-02-11T12:18:17.000Z,5.35
2023-02-11T12:21:09.699Z,2.85
2023-02-11T12:23:46.106Z,3.85
2023-02-11T12:26:19.585Z,2.22
2023-02-11T12:29:02.796Z,2.22
2023-02-11T12:31:55.637Z,3.33
2023-02-11T12:34:40.960Z,1.98
2023-02-11T12:37:26.815Z,2.58
2023-02-11T12:40:16.764Z,5.32
2023-02-11T12:43:23.622Z,2.55
2023-02-11T12:46:15.709Z,1.52
2023-02-11T12:49:07.715Z,2.17
2023-02-11T12:51:37.966Z,3.38
2023-02-11T12:54:17.711Z,1.70
2023-02-11T12:56:47.345Z,1.50
2023-02-11T12:59:41.645Z,1.65
2023-02-11T13:02:31.922Z,1.85
2023-02-11T13:05:10.697Z,1.50
2023-02-11T13:07:41.606Z,2.42
2023-02-11T13:10:21.681Z,0.73
2023-02-11T13:13:08.768Z,2.10
2023-02-11T13:15:42.613Z,2.00
2023-02-11T13:18:12.836Z,1.85
2023-02-11T13:21:03.659Z,1.95
2023-02-11T13:23:48.149Z,3.72
2023-02-11T13:26:21.667Z,1.65
2023-02-11T13:28:58.055Z,2.67
2023-02-11T13:31:33.775Z,2.95
2023-02-11T13:34:07.597Z,3.15
2023-02-11T13:36:35.266Z,1.83
2023-02-11T13:39:10.569Z,2.88
2023-02-11T13:41:39.401Z,3.67
2023-02-11T13:44:15.558Z,5.30
2023-02-11T13:47:03.353Z,2.90
2023-02-11T13:49:38.548Z,5.07
2023-02-11T13:52:06.860Z,3.08
2023-02-11T13:54:42.553Z,2.17
2023-02-11T13:57:21.623Z,2.47
2023-02-11T13:59:55.568Z,3.55
2023-02-11T14:02:59.353Z,1.50
2023-02-11T14:05:52.551Z,2.40
2023-02-11T14:08:40.051Z,1.58
2023-02-11T14:11:14.573Z,2.63
2023-02-11T14:13:48.143Z,1.20
2023-02-11T14:16:36.863Z,2.33
2023-02-11T14:19:11.701Z,3.35
2023-02-11T14:21:53.562Z,4.60
2023-02-11T14:24:20.979Z,2.75
2023-02-11T14:26:57.562Z,2.25
2023-02-11T14:29:39.995Z,3.10
2023-02-11T14:32:24.569Z,1.95
2023-02-11T14:34:57.633Z,1.73
2023-02-11T14:37:45.718Z,2.47
2023-02-11T14:40:20.605Z,3.13
2023-02-11T14:42:54.566Z,2.55
2023-02-11T14:45:25.048Z,3.03
2023-02-11T14:48:00.578Z,2.28
2023-02-11T14:50:32.483Z,2.97
2023-02-11T14:53:07.573Z,3.05
2023-02-11T14:55:37.712Z,2.38
2023-02-11T14:58:15.594Z,2.65
2023-02-11T15:00:56.570Z,1.67
2023-02-11T15:03:46.596Z,4.85
2023-02-11T15:06:19.684Z,2.05
2023-02-11T15:08:58.576Z,3.47
2023-02-11T15:11:26.321Z,1.10
2023-02-11T15:14:00.717Z,1.80
2023-02-11T15:16:29.273Z,3.45
2023-02-11T15:19:08.641Z,2.10
2023-02-11T15:21:42.758Z,1.00
2023-02-11T15:24:30.632Z,2.45
2023-02-11T15:27:02.458Z,1.60
2023-02-11T15:29:44.760Z,1.98
2023-02-11T15:32:12.056Z,1.85
2023-02-11T15:34:39.285Z,2.55
2023-02-11T15:37:13.836Z,2.22
2023-02-11T15:39:42.215Z,3.88
2023-02-11T15:42:24.727Z,2.60
2023-02-11T15:45:08.723Z,3.50
2023-02-11T15:47:42.645Z,1.80
2023-02-11T15:50:20.370Z,2.78
2023-02-11T15:52:54.695Z,2.15
2023-02-11T15:55:22.311Z,2.75
2023-02-11T15:58:07.796Z,1.42
2023-02-11T16:00:37.301Z,4.47
2023-02-11T16:03:04.552Z,3.35
2023-02-11T16:05:42.661Z,6.30
2023-02-11T16:08:29.910Z,1.80
2023-02-11T16:11:05.795Z,1.88
2023-02-11T16:13:33.663Z,2.35
2023-02-11T16:16:12.022Z,4.22
2023-02-11T16:18:40.400Z,3.38
2023-02-11T16:21:33.681Z,3.13
2023-02-11T16:24:01.209Z,5.47
2023-02-11T16:26:43.794Z,1.95
2023-02-11T16:29:15.103Z,2.63
2023-02-11T16:31:53.813Z,3.53
2023-02-11T16:34:22.360Z,2.05
2023-02-11T16:36:56.677Z,3.10
2023-02-11T16:39:30.618Z,3.92
2023-02-11T16:42:07.116Z,3.08
2023-02-11T16:44:41.647Z,8.18
2023-02-11T16:47:17.420Z,3.65
2023-02-11T16:49:50.731Z,3.42
2023-02-11T16:52:18.904Z,4.15
2023-02-11T16:54:46.074Z,1.75
2023-02-11T16:57:24.961Z,3.33
2023-02-11T16:59:52.441Z,2.40
2023-02-11T17:02:28.810Z,2.95
2023-02-11T17:04:56.886Z,3.20
2023-02-11T17:07:24.093Z,4.07
2023-02-11T17:10:00.833Z,3.97
2023-02-11T17:12:28.082Z,2.97
2023-02-11T17:15:01.867Z,4.32
2023-02-11T17:17:29.964Z,4.13
2023-02-11T17:20:17.849Z,8.13
2023-02-11T17:22:44.945Z,2.90
2023-02-11T17:25:12.251Z,3.88
2023-02-11T17:27:45.715Z,2.20
2023-02-11T17:30:14.108Z,4.15
2023-02-11T17:32:47.757Z,4.40
2023-02-11T17:35:14.929Z,6.68
2023-02-11T17:37:42.016Z,2.60
2023-02-11T17:40:15.781Z,2.17
2023-02-11T17:42:42.898Z,2.55
2023-02-11T17:45:16.735Z,2.95
2023-02-11T17:47:43.816Z,2.35
2023-02-11T17:50:11.150Z,3.65
2023-02-11T17:52:45.705Z,3.92
2023-02-11T17:55:12.970Z,3.85
2023-02-11T17:57:46.876Z,5.47
2023-02-11T18:00:17.524Z,3.90
2023-02-11T18:02:44.839Z,3.83
2023-02-11T18:05:18.960Z,4.13
2023-02-11T18:07:46.236Z,3.63
2023-02-11T18:10:13.416Z,4.15
2023-02-11T18:12:46.723Z,7.40
2023-02-11T18:15:20.711Z,5.72
2023-02-11T18:18:01.702Z,2.85
2023-02-11T18:20:35.702Z,4.70
2023-02-11T18:23:09.842Z,7.35
2023-02-11T18:25:37.148Z,7.50
2023-02-11T18:28:04.407Z,3.53
2023-02-11T18:30:37.829Z,4.55
2023-02-11T18:33:12.016Z,5.57
2023-02-11T18:35:45.834Z,3.75
2023-02-11T18:38:13.081Z,5.55
2023-02-11T18:40:40.643Z,3.83
2023-02-11T18:43:19.694Z,3.85
2023-02-11T18:45:47.977Z,2.80
2023-02-11T18:48:30.018Z,6.35
2023-02-11T18:50:57.255Z,8.55
2023-02-11T18:53:25.144Z,9.02
2023-02-11T18:55:59.701Z,8.70
2023-02-11T18:58:26.841Z,11.15
2023-02-11T19:01:00.881Z,8.98
2023-02-11T19:03:28.138Z,11.43
2023-02-11T19:05:55.270Z,9.80
2023-02-11T19:08:28.737Z,11.60
2023-02-11T19:10:55.991Z,9.13
2023-02-11T19:13:23.099Z,7.57
2023-02-11T19:15:56.831Z,9.10
2023-02-11T19:18:24.076Z,4.88
2023-02-11T19:21:10.871Z,3.90
2023-02-11T19:23:38.059Z,5.43
2023-02-11T19:26:06.348Z,10.20
2023-02-11T19:28:41.780Z,6.57
2023-02-11T19:31:09.675Z,5.78
2023-02-11T19:33:43.865Z,9.63
2023-02-11T19:36:16.236Z,7.40
2023-02-11T19:38:50.713Z,9.85
2023-02-11T19:41:29.642Z,7.88
2023-02-11T19:44:03.765Z,9.38
2023-02-11T19:46:38.767Z,11.23
2023-02-11T19:49:13.052Z,5.72
2023-02-11T19:51:40.249Z,5.25
2023-02-11T19:54:07.522Z,3.75
2023-02-11T19:56:41.726Z,7.97
2023-02-11T19:59:15.798Z,8.90
2023-02-11T20:01:43.231Z,8.43
2023-02-11T20:06:44.742Z,7.47
2023-02-11T20:09:31.029Z,8.30
2023-02-11T20:12:05.713Z,8.95
2023-02-11T20:14:32.797Z,7.25
2023-02-11T20:17:06.846Z,10.05
2023-02-11T20:19:33.972Z,11.30
2023-02-11T20:22:14.749Z,7.15
2023-02-11T20:24:48.783Z,7.15
2023-02-11T20:27:18.424Z,7.00
2023-02-11T20:29:47.219Z,7.85
2023-02-11T20:32:21.916Z,14.95
2023-02-11T20:34:49.112Z,7.50
2023-02-11T20:37:17.747Z,10.70
2023-02-11T20:39:52.728Z,9.05
2023-02-11T20:42:34.741Z,14.10
2023-02-11T20:45:15.876Z,19.48
2023-02-11T20:47:43.066Z,13.98
2023-02-11T20:50:10.412Z,10.35
2023-02-11T20:52:44.819Z,12.30
2023-02-11T20:55:12.053Z,12.13
2023-02-11T20:57:45.718Z,11.82
2023-02-11T21:00:13.173Z,12.40
2023-02-11T21:05:20.694Z,10.60
2023-02-11T21:07:54.747Z,15.20
2023-02-11T21:10:22.172Z,8.80
2023-02-11T21:15:24.080Z,12.93
2023-02-11T21:17:51.468Z,8.80
2023-02-11T21:20:25.726Z,9.63
2023-02-11T21:22:52.931Z,10.63
2023-02-11T21:25:28.861Z,11.93
2023-02-11T21:27:56.121Z,10.65
2023-02-11T21:30:23.743Z,13.88
2023-02-11T21:32:57.892Z,10.60
2023-02-11T21:35:25.050Z,14.00
2023-02-11T21:37:58.893Z,9.88
2023-02-11T21:40:28.962Z,13.82
2023-02-11T21:42:56.957Z,11.65
2023-02-11T21:45:32.509Z,20.02
2023-02-11T21:47:59.884Z,11.77
2023-02-11T21:50:33.896Z,11.18
2023-02-11T21:53:01.068Z,12.73
2023-02-11T21:55:28.237Z,7.68
2023-02-11T21:58:01.823Z,10.68
2023-02-11T22:00:30.829Z,14.73
2023-02-11T22:03:04.760Z,11.90
2023-02-11T22:05:31.901Z,14.90
2023-02-11T22:08:05.884Z,19.27
2023-02-11T22:10:33.025Z,16.35
2023-02-11T22:13:00.126Z,17.67
2023-02-11T22:15:33.768Z,19.60
2023-02-11T22:18:00.939Z,28.70
2023-02-11T22:20:34.899Z,23.13
2023-02-11T22:23:08.789Z,30.60
2023-02-11T22:25:43.902Z,28.33
2023-02-11T22:28:11.064Z,36.75
2023-02-11T22:30:38.394Z,39.03
2023-02-11T22:33:11.768Z,28.05
2023-02-11T22:35:38.953Z,35.17
2023-02-11T22:38:12.734Z,39.05
2023-02-11T22:40:43.838Z,34.63
2023-02-11T22:43:17.894Z,35.67
2023-02-11T22:45:45.127Z,48.95
2023-02-11T22:48:12.347Z,32.13
2023-02-11T22:50:45.797Z,40.80
2023-02-11T22:53:13.024Z,65.20
2023-02-11T22:55:47.744Z,56.55
2023-02-11T22:58:15.007Z,46.13
2023-02-11T23:00:42.229Z,67.63
2023-02-11T23:03:15.938Z,56.25
2023-02-11T23:05:43.160Z,59.63
2023-02-11T23:08:11.034Z,49.95
2023-02-11T23:10:45.900Z,54.40
2023-02-11T23:13:13.069Z,50.45
2023-02-11T23:15:41.189Z,77.40
2023-02-11T23:18:14.780Z,79.03
2023-02-11T23:20:55.846Z,84.32
2023-02-11T23:23:29.807Z,78.20
2023-02-11T23:26:03.814Z,97.07
2023-02-11T23:28:31.384Z,85.72
2023-02-11T23:33:32.758Z,90.55
2023-02-11T23:36:01.245Z,90.07
2023-02-11T23:38:34.874Z,83.07
2023-02-11T23:41:02.049Z,86.50
2023-02-11T23:43:29.220Z,81.28
2023-02-11T23:46:02.816Z,80.35
2023-02-11T23:48:29.948Z,90.70
2023-02-11T23:51:03.950Z,100.82
2023-02-11T23:53:31.093Z,106.05
2023-02-11T23:55:58.556Z,121.88
